sensor_id;sensor_type;location;lat;lon;timestamp;temperature;humidity
5796;DHT22;2924;51.458;7.046;2023-04-24T00:01:26;10.50;99.90
5796;DHT22;2924;51.458;7.046;2023-04-24T00:03:52;10.60;99.90
5796;DHT22;2924;51.458;7.046;2023-04-24T00:06:17;10.50;99.90
5796;DHT22;2924;51.458;7.046;2023-04-24T00:08:43;10.60;99.90
5796;DHT22;2924;51.458;7.046;2023-04-24T00:11:09;10.60;99.90
5796;DHT22;2924;51.458;7.046;2023-04-24T00:13:35;10.50;99.90
5796;DHT22;2924;51.458;7.046;2023-04-24T00:16:00;10.40;99.90
5796;DHT22;2924;51.458;7.046;2023-04-24T00:18:26;10.40;99.90
5796;DHT22;2924;51.458;7.046;2023-04-24T00:20:52;10.30;99.90
5796;DHT22;2924;51.458;7.046;2023-04-24T00:23:17;10.30;99.90
5796;DHT22;2924;51.458;7.046;2023-04-24T00:25:43;10.30;99.90
5796;DHT22;2924;51.458;7.046;2023-04-24T00:28:08;10.20;99.90
5796;DHT22;2924;51.458;7.046;2023-04-24T00:30:34;10.20;99.90
5796;DHT22;2924;51.458;7.046;2023-04-24T00:33:00;10.20;99.90
5796;DHT22;2924;51.458;7.046;2023-04-24T00:35:25;10.20;99.90
5796;DHT22;2924;51.458;7.046;2023-04-24T00:37:51;10.20;99.90
5796;DHT22;2924;51.458;7.046;2023-04-24T00:40:17;10.10;99.90
5796;DHT22;2924;51.458;7.046;2023-04-24T00:42:43;10.00;99.90
5796;DHT22;2924;51.458;7.046;2023-04-24T00:45:10;10.00;99.90
5796;DHT22;2924;51.458;7.046;2023-04-24T00:47:36;10.00;99.90
5796;DHT22;2924;51.458;7.046;2023-04-24T00:50:03;10.00;99.90
5796;DHT22;2924;51.458;7.046;2023-04-24T00:52:30;9.90;99.90
5796;DHT22;2924;51.458;7.046;2023-04-24T00:54:57;9.80;99.90
5796;DHT22;2924;51.458;7.046;2023-04-24T00:57:22;9.70;99.90
5796;DHT22;2924;51.458;7.046;2023-04-24T00:59:49;9.50;99.90
5796;DHT22;2924;51.458;7.046;2023-04-24T01:02:15;9.40;99.90
5796;DHT22;2924;51.458;7.046;2023-04-24T01:04:41;9.20;99.90
5796;DHT22;2924;51.458;7.046;2023-04-24T01:07:06;9.20;99.90
5796;DHT22;2924;51.458;7.046;2023-04-24T01:09:39;9.20;99.90
5796;DHT22;2924;51.458;7.046;2023-04-24T01:12:07;9.20;99.90
5796;DHT22;2924;51.458;7.046;2023-04-24T01:14:33;9.30;99.90
5796;DHT22;2924;51.458;7.046;2023-04-24T01:16:59;9.40;99.90
5796;DHT22;2924;51.458;7.046;2023-04-24T01:19:25;9.40;99.90
5796;DHT22;2924;51.458;7.046;2023-04-24T01:21:53;9.50;99.90
5796;DHT22;2924;51.458;7.046;2023-04-24T01:24:19;9.40;99.90
5796;DHT22;2924;51.458;7.046;2023-04-24T01:26:46;9.30;99.90
5796;DHT22;2924;51.458;7.046;2023-04-24T01:29:12;9.20;99.90
5796;DHT22;2924;51.458;7.046;2023-04-24T01:31:39;9.20;99.90
5796;DHT22;2924;51.458;7.046;2023-04-24T01:34:05;9.10;99.90
5796;DHT22;2924;51.458;7.046;2023-04-24T01:36:32;9.00;99.90
5796;DHT22;2924;51.458;7.046;2023-04-24T01:38:58;8.90;99.90
5796;DHT22;2924;51.458;7.046;2023-04-24T01:41:24;8.90;99.90
5796;DHT22;2924;51.458;7.046;2023-04-24T01:43:50;8.80;99.90
5796;DHT22;2924;51.458;7.046;2023-04-24T01:46:15;8.70;99.90
5796;DHT22;2924;51.458;7.046;2023-04-24T01:48:41;8.70;99.90
5796;DHT22;2924;51.458;7.046;2023-04-24T01:51:07;8.60;99.90
5796;DHT22;2924;51.458;7.046;2023-04-24T01:53:32;8.60;99.90
5796;DHT22;2924;51.458;7.046;2023-04-24T01:55:58;8.60;99.90
5796;DHT22;2924;51.458;7.046;2023-04-24T01:58:24;8.60;99.90
5796;DHT22;2924;51.458;7.046;2023-04-24T02:00:50;8.50;99.90
5796;DHT22;2924;51.458;7.046;2023-04-24T02:03:15;8.50;99.90
5796;DHT22;2924;51.458;7.046;2023-04-24T02:05:44;8.50;99.90
5796;DHT22;2924;51.458;7.046;2023-04-24T02:08:10;8.50;99.90
5796;DHT22;2924;51.458;7.046;2023-04-24T02:10:36;8.40;99.90
5796;DHT22;2924;51.458;7.046;2023-04-24T02:13:01;8.30;99.90
5796;DHT22;2924;51.458;7.046;2023-04-24T02:15:27;8.30;99.90
5796;DHT22;2924;51.458;7.046;2023-04-24T02:17:53;8.40;99.90
5796;DHT22;2924;51.458;7.046;2023-04-24T02:20:18;8.40;99.90
5796;DHT22;2924;51.458;7.046;2023-04-24T02:22:44;8.40;99.90
5796;DHT22;2924;51.458;7.046;2023-04-24T02:25:10;8.40;99.90
5796;DHT22;2924;51.458;7.046;2023-04-24T02:27:36;8.50;99.90
5796;DHT22;2924;51.458;7.046;2023-04-24T02:30:01;8.50;99.90
5796;DHT22;2924;51.458;7.046;2023-04-24T02:32:28;8.50;99.90
5796;DHT22;2924;51.458;7.046;2023-04-24T02:34:53;8.50;99.90
5796;DHT22;2924;51.458;7.046;2023-04-24T02:37:19;8.50;99.90
5796;DHT22;2924;51.458;7.046;2023-04-24T02:39:44;8.40;99.90
5796;DHT22;2924;51.458;7.046;2023-04-24T02:42:10;8.50;99.90
5796;DHT22;2924;51.458;7.046;2023-04-24T02:44:35;8.40;99.90
5796;DHT22;2924;51.458;7.046;2023-04-24T02:47:01;8.50;99.90
5796;DHT22;2924;51.458;7.046;2023-04-24T02:49:26;8.50;99.90
5796;DHT22;2924;51.458;7.046;2023-04-24T02:51:52;8.40;99.90
5796;DHT22;2924;51.458;7.046;2023-04-24T02:54:18;8.50;99.90
5796;DHT22;2924;51.458;7.046;2023-04-24T02:56:43;8.50;99.90
5796;DHT22;2924;51.458;7.046;2023-04-24T02:59:09;8.50;99.90
5796;DHT22;2924;51.458;7.046;2023-04-24T03:01:35;8.50;99.90
5796;DHT22;2924;51.458;7.046;2023-04-24T03:04:01;8.60;99.90
5796;DHT22;2924;51.458;7.046;2023-04-24T03:06:27;8.60;99.90
5796;DHT22;2924;51.458;7.046;2023-04-24T03:08:53;8.60;99.90
5796;DHT22;2924;51.458;7.046;2023-04-24T03:11:19;8.70;99.90
5796;DHT22;2924;51.458;7.046;2023-04-24T03:13:45;8.70;99.90
5796;DHT22;2924;51.458;7.046;2023-04-24T03:16:11;8.70;99.90
5796;DHT22;2924;51.458;7.046;2023-04-24T03:18:36;8.70;99.90
5796;DHT22;2924;51.458;7.046;2023-04-24T03:21:02;8.70;99.90
5796;DHT22;2924;51.458;7.046;2023-04-24T03:23:28;8.70;99.90
5796;DHT22;2924;51.458;7.046;2023-04-24T03:25:54;8.70;99.90
5796;DHT22;2924;51.458;7.046;2023-04-24T03:28:20;8.70;99.90
5796;DHT22;2924;51.458;7.046;2023-04-24T03:30:46;8.70;99.90
5796;DHT22;2924;51.458;7.046;2023-04-24T03:33:11;8.80;99.90
5796;DHT22;2924;51.458;7.046;2023-04-24T03:35:37;8.80;99.90
5796;DHT22;2924;51.458;7.046;2023-04-24T03:38:02;8.80;99.90
5796;DHT22;2924;51.458;7.046;2023-04-24T03:40:30;8.80;99.90
5796;DHT22;2924;51.458;7.046;2023-04-24T03:42:55;8.80;99.90
5796;DHT22;2924;51.458;7.046;2023-04-24T03:45:21;8.80;99.90
5796;DHT22;2924;51.458;7.046;2023-04-24T03:47:46;8.80;99.90
5796;DHT22;2924;51.458;7.046;2023-04-24T03:50:12;8.80;99.90
5796;DHT22;2924;51.458;7.046;2023-04-24T03:52:38;8.80;99.90
5796;DHT22;2924;51.458;7.046;2023-04-24T03:55:03;8.80;99.90
5796;DHT22;2924;51.458;7.046;2023-04-24T03:57:29;8.80;99.90
5796;DHT22;2924;51.458;7.046;2023-04-24T03:59:55;8.80;99.90
5796;DHT22;2924;51.458;7.046;2023-04-24T04:02:20;8.80;99.90
5796;DHT22;2924;51.458;7.046;2023-04-24T04:04:46;8.80;99.90
5796;DHT22;2924;51.458;7.046;2023-04-24T04:07:11;8.80;99.90
5796;DHT22;2924;51.458;7.046;2023-04-24T04:09:38;8.90;99.90
5796;DHT22;2924;51.458;7.046;2023-04-24T04:12:03;8.90;99.90
5796;DHT22;2924;51.458;7.046;2023-04-24T04:14:29;8.80;99.90
5796;DHT22;2924;51.458;7.046;2023-04-24T04:16:55;8.80;99.90
5796;DHT22;2924;51.458;7.046;2023-04-24T04:19:20;8.90;99.90
5796;DHT22;2924;51.458;7.046;2023-04-24T04:21:46;8.90;99.90
5796;DHT22;2924;51.458;7.046;2023-04-24T04:24:15;8.90;99.90
5796;DHT22;2924;51.458;7.046;2023-04-24T04:26:41;8.90;99.90
5796;DHT22;2924;51.458;7.046;2023-04-24T04:29:13;8.90;99.90
5796;DHT22;2924;51.458;7.046;2023-04-24T04:31:38;8.90;99.90
5796;DHT22;2924;51.458;7.046;2023-04-24T04:34:04;8.90;99.90
5796;DHT22;2924;51.458;7.046;2023-04-24T04:36:30;8.90;99.90
5796;DHT22;2924;51.458;7.046;2023-04-24T04:38:55;8.90;99.90
5796;DHT22;2924;51.458;7.046;2023-04-24T04:41:22;8.90;99.90
5796;DHT22;2924;51.458;7.046;2023-04-24T04:43:47;8.90;99.90
5796;DHT22;2924;51.458;7.046;2023-04-24T04:46:13;8.90;99.90
5796;DHT22;2924;51.458;7.046;2023-04-24T04:48:38;8.90;99.90
5796;DHT22;2924;51.458;7.046;2023-04-24T04:51:04;8.90;99.90
5796;DHT22;2924;51.458;7.046;2023-04-24T04:53:30;8.90;99.90
5796;DHT22;2924;51.458;7.046;2023-04-24T04:55:56;8.90;99.90
5796;DHT22;2924;51.458;7.046;2023-04-24T04:58:22;8.90;99.90
5796;DHT22;2924;51.458;7.046;2023-04-24T05:00:47;9.00;99.90
5796;DHT22;2924;51.458;7.046;2023-04-24T05:03:14;8.90;99.90
5796;DHT22;2924;51.458;7.046;2023-04-24T05:05:39;8.90;99.90
5796;DHT22;2924;51.458;7.046;2023-04-24T05:08:09;8.90;99.90
5796;DHT22;2924;51.458;7.046;2023-04-24T05:10:35;8.90;99.90
5796;DHT22;2924;51.458;7.046;2023-04-24T05:13:02;8.90;99.90
5796;DHT22;2924;51.458;7.046;2023-04-24T05:15:29;8.90;99.90
5796;DHT22;2924;51.458;7.046;2023-04-24T05:17:54;8.90;99.90
5796;DHT22;2924;51.458;7.046;2023-04-24T05:20:20;8.80;99.90
5796;DHT22;2924;51.458;7.046;2023-04-24T05:22:45;8.90;99.90
5796;DHT22;2924;51.458;7.046;2023-04-24T05:25:11;8.90;99.90
5796;DHT22;2924;51.458;7.046;2023-04-24T05:27:38;8.80;99.90
5796;DHT22;2924;51.458;7.046;2023-04-24T05:30:04;8.70;99.90
5796;DHT22;2924;51.458;7.046;2023-04-24T05:32:30;8.70;99.90
5796;DHT22;2924;51.458;7.046;2023-04-24T05:34:55;8.70;99.90
5796;DHT22;2924;51.458;7.046;2023-04-24T05:37:21;8.60;99.90
5796;DHT22;2924;51.458;7.046;2023-04-24T05:39:47;8.40;99.90
5796;DHT22;2924;51.458;7.046;2023-04-24T05:42:12;8.20;99.90
5796;DHT22;2924;51.458;7.046;2023-04-24T05:44:38;8.10;99.90
5796;DHT22;2924;51.458;7.046;2023-04-24T05:47:03;8.10;99.90
5796;DHT22;2924;51.458;7.046;2023-04-24T05:49:29;8.00;99.90
5796;DHT22;2924;51.458;7.046;2023-04-24T05:51:54;8.00;99.90
5796;DHT22;2924;51.458;7.046;2023-04-24T05:54:20;7.90;99.90
5796;DHT22;2924;51.458;7.046;2023-04-24T05:56:46;7.90;99.90
5796;DHT22;2924;51.458;7.046;2023-04-24T05:59:11;7.90;99.90
5796;DHT22;2924;51.458;7.046;2023-04-24T06:01:37;7.90;99.90
5796;DHT22;2924;51.458;7.046;2023-04-24T06:04:03;7.90;99.90
5796;DHT22;2924;51.458;7.046;2023-04-24T06:06:29;7.90;99.90
5796;DHT22;2924;51.458;7.046;2023-04-24T06:08:55;7.90;99.90
5796;DHT22;2924;51.458;7.046;2023-04-24T06:11:22;7.90;99.90
5796;DHT22;2924;51.458;7.046;2023-04-24T06:13:48;7.90;99.90
5796;DHT22;2924;51.458;7.046;2023-04-24T06:16:13;7.90;99.90
5796;DHT22;2924;51.458;7.046;2023-04-24T06:18:39;8.00;99.90
5796;DHT22;2924;51.458;7.046;2023-04-24T06:21:05;8.00;99.90
5796;DHT22;2924;51.458;7.046;2023-04-24T06:23:30;8.10;99.90
5796;DHT22;2924;51.458;7.046;2023-04-24T06:25:58;8.10;99.90
5796;DHT22;2924;51.458;7.046;2023-04-24T06:28:23;8.20;99.90
5796;DHT22;2924;51.458;7.046;2023-04-24T06:30:49;8.20;99.90
5796;DHT22;2924;51.458;7.046;2023-04-24T06:33:16;8.10;99.90
5796;DHT22;2924;51.458;7.046;2023-04-24T06:35:41;8.10;99.90
5796;DHT22;2924;51.458;7.046;2023-04-24T06:38:07;8.10;99.90
5796;DHT22;2924;51.458;7.046;2023-04-24T06:40:33;8.00;99.90
5796;DHT22;2924;51.458;7.046;2023-04-24T06:42:58;7.90;99.90
5796;DHT22;2924;51.458;7.046;2023-04-24T06:45:25;8.00;99.90
5796;DHT22;2924;51.458;7.046;2023-04-24T06:47:51;8.00;99.90
5796;DHT22;2924;51.458;7.046;2023-04-24T06:50:16;8.10;99.90
5796;DHT22;2924;51.458;7.046;2023-04-24T06:52:42;8.10;99.90
5796;DHT22;2924;51.458;7.046;2023-04-24T06:55:08;8.10;99.90
5796;DHT22;2924;51.458;7.046;2023-04-24T06:57:33;8.20;99.90
5796;DHT22;2924;51.458;7.046;2023-04-24T06:59:59;8.30;99.90
5796;DHT22;2924;51.458;7.046;2023-04-24T07:02:25;8.30;99.90
5796;DHT22;2924;51.458;7.046;2023-04-24T07:04:50;8.30;99.90
5796;DHT22;2924;51.458;7.046;2023-04-24T07:07:16;8.20;99.90
5796;DHT22;2924;51.458;7.046;2023-04-24T07:09:42;8.10;99.90
5796;DHT22;2924;51.458;7.046;2023-04-24T07:12:08;7.90;99.90
5796;DHT22;2924;51.458;7.046;2023-04-24T07:14:34;7.90;99.90
5796;DHT22;2924;51.458;7.046;2023-04-24T07:17:00;7.90;99.90
5796;DHT22;2924;51.458;7.046;2023-04-24T07:19:26;7.90;99.90
5796;DHT22;2924;51.458;7.046;2023-04-24T07:21:52;7.90;99.90
5796;DHT22;2924;51.458;7.046;2023-04-24T07:24:18;7.90;99.90
5796;DHT22;2924;51.458;7.046;2023-04-24T07:26:44;8.00;99.90
5796;DHT22;2924;51.458;7.046;2023-04-24T07:29:12;8.00;99.90
5796;DHT22;2924;51.458;7.046;2023-04-24T07:31:38;8.00;99.90
5796;DHT22;2924;51.458;7.046;2023-04-24T07:34:04;7.90;99.90
5796;DHT22;2924;51.458;7.046;2023-04-24T07:36:29;7.90;99.90
5796;DHT22;2924;51.458;7.046;2023-04-24T07:38:55;7.90;99.90
5796;DHT22;2924;51.458;7.046;2023-04-24T07:41:22;7.90;99.90
5796;DHT22;2924;51.458;7.046;2023-04-24T07:43:48;7.80;99.90
5796;DHT22;2924;51.458;7.046;2023-04-24T07:46:13;7.80;99.90
5796;DHT22;2924;51.458;7.046;2023-04-24T07:48:39;7.70;99.90
5796;DHT22;2924;51.458;7.046;2023-04-24T07:51:04;7.70;99.90
5796;DHT22;2924;51.458;7.046;2023-04-24T07:53:30;7.70;99.90
5796;DHT22;2924;51.458;7.046;2023-04-24T07:55:56;7.90;99.90
5796;DHT22;2924;51.458;7.046;2023-04-24T07:58:22;8.20;99.90
5796;DHT22;2924;51.458;7.046;2023-04-24T08:00:47;8.50;99.90
5796;DHT22;2924;51.458;7.046;2023-04-24T08:03:13;8.60;99.90
5796;DHT22;2924;51.458;7.046;2023-04-24T08:05:39;8.30;99.90
5796;DHT22;2924;51.458;7.046;2023-04-24T08:08:06;8.00;99.90
5796;DHT22;2924;51.458;7.046;2023-04-24T08:10:31;7.80;99.90
5796;DHT22;2924;51.458;7.046;2023-04-24T08:12:57;7.70;99.90
5796;DHT22;2924;51.458;7.046;2023-04-24T08:15:22;7.60;99.90
5796;DHT22;2924;51.458;7.046;2023-04-24T08:17:48;7.50;99.90
5796;DHT22;2924;51.458;7.046;2023-04-24T08:20:13;7.50;99.90
5796;DHT22;2924;51.458;7.046;2023-04-24T08:22:40;7.60;99.90
5796;DHT22;2924;51.458;7.046;2023-04-24T08:25:06;7.60;99.90
5796;DHT22;2924;51.458;7.046;2023-04-24T08:27:32;7.50;99.90
5796;DHT22;2924;51.458;7.046;2023-04-24T08:29:58;7.50;99.90
5796;DHT22;2924;51.458;7.046;2023-04-24T08:32:26;7.40;99.90
5796;DHT22;2924;51.458;7.046;2023-04-24T08:34:54;7.40;99.90
5796;DHT22;2924;51.458;7.046;2023-04-24T08:37:22;7.40;99.90
5796;DHT22;2924;51.458;7.046;2023-04-24T08:39:47;7.30;99.90
5796;DHT22;2924;51.458;7.046;2023-04-24T08:42:13;7.20;99.90
5796;DHT22;2924;51.458;7.046;2023-04-24T08:44:40;7.20;99.90
5796;DHT22;2924;51.458;7.046;2023-04-24T08:47:07;7.20;99.90
5796;DHT22;2924;51.458;7.046;2023-04-24T08:49:33;7.10;99.90
5796;DHT22;2924;51.458;7.046;2023-04-24T08:52:02;7.20;99.90
5796;DHT22;2924;51.458;7.046;2023-04-24T08:54:28;7.20;99.90
5796;DHT22;2924;51.458;7.046;2023-04-24T08:56:58;7.30;99.90
5796;DHT22;2924;51.458;7.046;2023-04-24T08:59:26;7.40;99.90
5796;DHT22;2924;51.458;7.046;2023-04-24T09:01:52;7.40;99.90
5796;DHT22;2924;51.458;7.046;2023-04-24T09:04:19;7.60;99.90
5796;DHT22;2924;51.458;7.046;2023-04-24T09:06:50;7.80;99.90
5796;DHT22;2924;51.458;7.046;2023-04-24T09:09:17;8.00;99.90
5796;DHT22;2924;51.458;7.046;2023-04-24T09:11:44;8.20;99.90
5796;DHT22;2924;51.458;7.046;2023-04-24T09:14:10;8.30;99.90
5796;DHT22;2924;51.458;7.046;2023-04-24T09:16:36;8.50;99.90
5796;DHT22;2924;51.458;7.046;2023-04-24T09:19:02;8.50;99.90
5796;DHT22;2924;51.458;7.046;2023-04-24T09:21:32;8.50;99.90
5796;DHT22;2924;51.458;7.046;2023-04-24T09:24:04;8.40;99.90
5796;DHT22;2924;51.458;7.046;2023-04-24T09:26:31;8.20;99.90
5796;DHT22;2924;51.458;7.046;2023-04-24T09:28:57;8.10;99.90
5796;DHT22;2924;51.458;7.046;2023-04-24T09:31:23;8.00;99.90
5796;DHT22;2924;51.458;7.046;2023-04-24T09:33:56;8.00;99.90
5796;DHT22;2924;51.458;7.046;2023-04-24T09:36:30;8.00;99.90
5796;DHT22;2924;51.458;7.046;2023-04-24T09:38:59;8.00;99.90
5796;DHT22;2924;51.458;7.046;2023-04-24T09:41:25;7.90;99.90
5796;DHT22;2924;51.458;7.046;2023-04-24T09:43:53;7.80;99.90
5796;DHT22;2924;51.458;7.046;2023-04-24T09:46:19;7.90;99.90
5796;DHT22;2924;51.458;7.046;2023-04-24T09:48:45;7.90;99.90
5796;DHT22;2924;51.458;7.046;2023-04-24T09:51:10;8.00;99.90
5796;DHT22;2924;51.458;7.046;2023-04-24T09:53:37;8.00;99.90
5796;DHT22;2924;51.458;7.046;2023-04-24T09:56:10;7.90;99.90
5796;DHT22;2924;51.458;7.046;2023-04-24T09:58:38;7.80;99.90
5796;DHT22;2924;51.458;7.046;2023-04-24T10:01:04;7.70;99.90
5796;DHT22;2924;51.458;7.046;2023-04-24T10:03:31;7.60;99.90
5796;DHT22;2924;51.458;7.046;2023-04-24T10:06:01;7.50;99.90
5796;DHT22;2924;51.458;7.046;2023-04-24T10:08:26;7.50;99.90
5796;DHT22;2924;51.458;7.046;2023-04-24T10:10:58;7.50;99.90
5796;DHT22;2924;51.458;7.046;2023-04-24T10:13:25;7.40;99.90
5796;DHT22;2924;51.458;7.046;2023-04-24T10:15:51;7.50;99.90
5796;DHT22;2924;51.458;7.046;2023-04-24T10:18:17;7.50;99.90
5796;DHT22;2924;51.458;7.046;2023-04-24T10:20:43;7.50;99.90
5796;DHT22;2924;51.458;7.046;2023-04-24T10:23:08;7.60;99.90
5796;DHT22;2924;51.458;7.046;2023-04-24T10:25:35;7.60;99.90
5796;DHT22;2924;51.458;7.046;2023-04-24T10:28:03;7.60;99.90
5796;DHT22;2924;51.458;7.046;2023-04-24T10:30:33;7.60;99.90
5796;DHT22;2924;51.458;7.046;2023-04-24T10:33:04;7.60;99.90
5796;DHT22;2924;51.458;7.046;2023-04-24T10:35:39;7.70;99.90
5796;DHT22;2924;51.458;7.046;2023-04-24T10:38:09;7.80;99.90
5796;DHT22;2924;51.458;7.046;2023-04-24T10:40:36;7.80;99.90
5796;DHT22;2924;51.458;7.046;2023-04-24T10:43:06;7.70;99.90
5796;DHT22;2924;51.458;7.046;2023-04-24T10:45:34;7.70;99.90
5796;DHT22;2924;51.458;7.046;2023-04-24T10:48:03;7.60;99.90
5796;DHT22;2924;51.458;7.046;2023-04-24T10:50:41;7.70;99.90
5796;DHT22;2924;51.458;7.046;2023-04-24T10:53:11;7.70;99.90
5796;DHT22;2924;51.458;7.046;2023-04-24T10:55:49;7.80;99.90
5796;DHT22;2924;51.458;7.046;2023-04-24T10:58:16;7.80;99.90
5796;DHT22;2924;51.458;7.046;2023-04-24T11:00:43;8.00;99.90
5796;DHT22;2924;51.458;7.046;2023-04-24T11:03:30;8.20;99.90
5796;DHT22;2924;51.458;7.046;2023-04-24T11:05:57;8.30;99.90
5796;DHT22;2924;51.458;7.046;2023-04-24T11:08:51;8.30;99.90
5796;DHT22;2924;51.458;7.046;2023-04-24T11:11:18;8.30;99.90
5796;DHT22;2924;51.458;7.046;2023-04-24T11:16:21;8.40;99.90
5796;DHT22;2924;51.458;7.046;2023-04-24T11:19:10;8.40;99.90
5796;DHT22;2924;51.458;7.046;2023-04-24T11:27:20;9.00;99.90
5796;DHT22;2924;51.458;7.046;2023-04-24T11:30:00;9.50;99.90
5796;DHT22;2924;51.458;7.046;2023-04-24T11:35:04;10.50;99.90
5796;DHT22;2924;51.458;7.046;2023-04-24T11:37:36;10.40;99.90
5796;DHT22;2924;51.458;7.046;2023-04-24T11:40:02;10.20;99.90
5796;DHT22;2924;51.458;7.046;2023-04-24T11:42:43;10.00;99.90
5796;DHT22;2924;51.458;7.046;2023-04-24T11:47:36;9.40;99.90
5796;DHT22;2924;51.458;7.046;2023-04-24T11:50:03;9.10;99.90
5796;DHT22;2924;51.458;7.046;2023-04-24T11:52:30;8.90;99.90
5796;DHT22;2924;51.458;7.046;2023-04-24T11:54:55;8.70;99.90
5796;DHT22;2924;51.458;7.046;2023-04-24T11:57:23;8.50;99.90
5796;DHT22;2924;51.458;7.046;2023-04-24T11:59:51;8.50;99.90
5796;DHT22;2924;51.458;7.046;2023-04-24T12:02:25;8.50;99.90
5796;DHT22;2924;51.458;7.046;2023-04-24T12:04:52;8.80;99.90
5796;DHT22;2924;51.458;7.046;2023-04-24T12:07:18;9.40;99.90
5796;DHT22;2924;51.458;7.046;2023-04-24T12:09:49;10.00;99.90
5796;DHT22;2924;51.458;7.046;2023-04-24T12:12:16;10.60;99.90
5796;DHT22;2924;51.458;7.046;2023-04-24T12:14:49;11.10;99.90
5796;DHT22;2924;51.458;7.046;2023-04-24T12:17:30;11.40;99.90
5796;DHT22;2924;51.458;7.046;2023-04-24T12:20:04;11.60;99.90
5796;DHT22;2924;51.458;7.046;2023-04-24T12:25:10;11.70;99.90
5796;DHT22;2924;51.458;7.046;2023-04-24T12:27:36;11.70;99.90
5796;DHT22;2924;51.458;7.046;2023-04-24T12:30:04;11.50;99.90
5796;DHT22;2924;51.458;7.046;2023-04-24T12:32:30;11.20;99.90
5796;DHT22;2924;51.458;7.046;2023-04-24T12:34:57;10.90;99.90
5796;DHT22;2924;51.458;7.046;2023-04-24T12:37:24;10.70;99.90
5796;DHT22;2924;51.458;7.046;2023-04-24T12:40:05;10.60;99.90
5796;DHT22;2924;51.458;7.046;2023-04-24T12:42:34;10.50;99.90
5796;DHT22;2924;51.458;7.046;2023-04-24T12:45:06;10.30;99.90
5796;DHT22;2924;51.458;7.046;2023-04-24T12:47:32;10.20;99.90
5796;DHT22;2924;51.458;7.046;2023-04-24T12:49:59;9.90;99.90
5796;DHT22;2924;51.458;7.046;2023-04-24T12:52:26;10.00;99.90
5796;DHT22;2924;51.458;7.046;2023-04-24T12:54:53;10.20;99.90
5796;DHT22;2924;51.458;7.046;2023-04-24T12:57:20;10.40;99.90
5796;DHT22;2924;51.458;7.046;2023-04-24T12:59:46;10.60;99.90
5796;DHT22;2924;51.458;7.046;2023-04-24T13:02:12;10.70;99.90
5796;DHT22;2924;51.458;7.046;2023-04-24T13:04:38;10.80;99.90
5796;DHT22;2924;51.458;7.046;2023-04-24T13:07:04;11.00;99.90
5796;DHT22;2924;51.458;7.046;2023-04-24T13:09:30;11.30;99.90
5796;DHT22;2924;51.458;7.046;2023-04-24T13:11:56;11.60;99.90
5796;DHT22;2924;51.458;7.046;2023-04-24T13:14:22;11.70;99.90
5796;DHT22;2924;51.458;7.046;2023-04-24T13:16:48;11.80;99.90
5796;DHT22;2924;51.458;7.046;2023-04-24T13:19:14;11.90;99.90
5796;DHT22;2924;51.458;7.046;2023-04-24T13:21:40;12.00;99.90
5796;DHT22;2924;51.458;7.046;2023-04-24T13:24:06;12.00;99.90
5796;DHT22;2924;51.458;7.046;2023-04-24T13:26:33;11.70;99.90
5796;DHT22;2924;51.458;7.046;2023-04-24T13:28:59;11.60;99.90
5796;DHT22;2924;51.458;7.046;2023-04-24T13:31:24;11.50;99.90
5796;DHT22;2924;51.458;7.046;2023-04-24T13:33:50;11.30;99.90
5796;DHT22;2924;51.458;7.046;2023-04-24T13:36:16;11.40;99.90
5796;DHT22;2924;51.458;7.046;2023-04-24T13:38:43;11.30;99.90
5796;DHT22;2924;51.458;7.046;2023-04-24T13:41:09;11.30;99.90
5796;DHT22;2924;51.458;7.046;2023-04-24T13:43:35;11.30;99.90
5796;DHT22;2924;51.458;7.046;2023-04-24T13:46:01;11.50;99.90
5796;DHT22;2924;51.458;7.046;2023-04-24T13:48:29;11.60;99.90
5796;DHT22;2924;51.458;7.046;2023-04-24T13:50:54;11.50;99.90
5796;DHT22;2924;51.458;7.046;2023-04-24T13:53:20;11.40;99.90
5796;DHT22;2924;51.458;7.046;2023-04-24T13:55:45;11.20;99.90
5796;DHT22;2924;51.458;7.046;2023-04-24T13:58:11;11.10;99.90
5796;DHT22;2924;51.458;7.046;2023-04-24T14:00:37;11.20;99.90
5796;DHT22;2924;51.458;7.046;2023-04-24T14:03:02;11.50;99.90
5796;DHT22;2924;51.458;7.046;2023-04-24T14:05:28;11.90;99.90
5796;DHT22;2924;51.458;7.046;2023-04-24T14:07:53;12.30;99.90
5796;DHT22;2924;51.458;7.046;2023-04-24T14:10:19;12.60;99.90
5796;DHT22;2924;51.458;7.046;2023-04-24T14:12:45;12.90;99.90
5796;DHT22;2924;51.458;7.046;2023-04-24T14:15:10;13.00;99.90
5796;DHT22;2924;51.458;7.046;2023-04-24T14:17:39;13.10;99.90
5796;DHT22;2924;51.458;7.046;2023-04-24T14:20:06;12.90;99.90
5796;DHT22;2924;51.458;7.046;2023-04-24T14:22:32;12.90;99.90
5796;DHT22;2924;51.458;7.046;2023-04-24T14:24:58;12.60;99.90
5796;DHT22;2924;51.458;7.046;2023-04-24T14:27:24;12.30;99.90
5796;DHT22;2924;51.458;7.046;2023-04-24T14:29:50;12.10;99.90
5796;DHT22;2924;51.458;7.046;2023-04-24T14:32:16;11.90;99.90
5796;DHT22;2924;51.458;7.046;2023-04-24T14:34:41;11.90;99.90
5796;DHT22;2924;51.458;7.046;2023-04-24T14:37:07;11.80;99.90
5796;DHT22;2924;51.458;7.046;2023-04-24T14:39:33;11.70;99.90
5796;DHT22;2924;51.458;7.046;2023-04-24T14:41:58;11.60;99.90
5796;DHT22;2924;51.458;7.046;2023-04-24T14:44:25;11.50;99.90
5796;DHT22;2924;51.458;7.046;2023-04-24T14:46:51;11.30;99.90
5796;DHT22;2924;51.458;7.046;2023-04-24T14:49:17;11.20;99.90
5796;DHT22;2924;51.458;7.046;2023-04-24T14:51:42;10.90;99.90
5796;DHT22;2924;51.458;7.046;2023-04-24T14:54:08;10.80;99.90
5796;DHT22;2924;51.458;7.046;2023-04-24T14:56:34;10.60;99.90
5796;DHT22;2924;51.458;7.046;2023-04-24T14:59:00;10.20;99.90
5796;DHT22;2924;51.458;7.046;2023-04-24T15:01:25;9.90;99.90
5796;DHT22;2924;51.458;7.046;2023-04-24T15:03:51;9.60;99.90
5796;DHT22;2924;51.458;7.046;2023-04-24T15:06:17;9.40;99.90
5796;DHT22;2924;51.458;7.046;2023-04-24T15:08:42;9.30;99.90
5796;DHT22;2924;51.458;7.046;2023-04-24T15:11:09;9.30;99.90
5796;DHT22;2924;51.458;7.046;2023-04-24T15:13:35;9.40;99.90
5796;DHT22;2924;51.458;7.046;2023-04-24T15:16:00;9.40;99.90
5796;DHT22;2924;51.458;7.046;2023-04-24T15:18:27;9.40;99.90
5796;DHT22;2924;51.458;7.046;2023-04-24T15:20:54;9.60;99.90
5796;DHT22;2924;51.458;7.046;2023-04-24T15:23:19;9.70;99.90
5796;DHT22;2924;51.458;7.046;2023-04-24T15:25:45;9.80;99.90
5796;DHT22;2924;51.458;7.046;2023-04-24T15:28:11;10.10;99.90
5796;DHT22;2924;51.458;7.046;2023-04-24T15:30:37;10.50;99.90
5796;DHT22;2924;51.458;7.046;2023-04-24T15:33:02;11.20;99.90
5796;DHT22;2924;51.458;7.046;2023-04-24T15:35:28;11.80;99.90
5796;DHT22;2924;51.458;7.046;2023-04-24T15:37:54;11.90;99.90
5796;DHT22;2924;51.458;7.046;2023-04-24T15:40:20;12.10;99.90
5796;DHT22;2924;51.458;7.046;2023-04-24T15:42:46;12.10;99.90
5796;DHT22;2924;51.458;7.046;2023-04-24T15:45:11;12.10;99.90
5796;DHT22;2924;51.458;7.046;2023-04-24T15:47:38;12.20;99.90
5796;DHT22;2924;51.458;7.046;2023-04-24T15:50:04;12.80;99.90
5796;DHT22;2924;51.458;7.046;2023-04-24T15:52:29;13.70;99.90
5796;DHT22;2924;51.458;7.046;2023-04-24T15:54:55;14.30;99.90
5796;DHT22;2924;51.458;7.046;2023-04-24T15:57:21;14.60;99.90
5796;DHT22;2924;51.458;7.046;2023-04-24T15:59:46;14.80;99.90
5796;DHT22;2924;51.458;7.046;2023-04-24T16:02:13;14.60;99.90
5796;DHT22;2924;51.458;7.046;2023-04-24T16:04:46;14.50;99.90
5796;DHT22;2924;51.458;7.046;2023-04-24T16:07:15;14.00;99.90
5796;DHT22;2924;51.458;7.046;2023-04-24T16:09:43;13.10;99.90
5796;DHT22;2924;51.458;7.046;2023-04-24T16:12:09;12.50;99.90
5796;DHT22;2924;51.458;7.046;2023-04-24T16:14:36;12.10;99.90
5796;DHT22;2924;51.458;7.046;2023-04-24T16:17:01;11.90;99.90
5796;DHT22;2924;51.458;7.046;2023-04-24T16:19:27;12.30;99.90
5796;DHT22;2924;51.458;7.046;2023-04-24T16:21:53;12.80;99.90
5796;DHT22;2924;51.458;7.046;2023-04-24T16:24:23;13.00;99.90